Terminal Aerodrome Forecast
Issued by NWS

Home | Current Version | Previous Version | Text Only | Print | Product List | Glossary On
Versions: 1 2 3 4 5 6 7 8 9 10 11 12 13 14 15 16 17 18 19 20 21 22 23 24 25
000
FTPA31 PHFO 242300
TAFOGG
TAF
PHOG 242320Z 2500/2524 06020G30KT P6SM FEW030 SCT050
     FM250400 05015G25KT P6SM FEW030 SCT045
     FM251000 05015KT P6SM FEW025 SCT035
     FM252000 05020G30KT P6SM FEW025 SCT045
      AMD LTD TO WX VIS AND WIND 2509/2516=

USA.gov is the U.S. government's official web portal to all federal, state and local government web resources and services.